This is the latest recevied weather packets stored in our database for station/object DH5DY-6. If no packets are shown the sender has not sent any weather packets the latest 10 day(s).
| Time | Temp. | Humidity | Pressure | Rain* | Wind** | Luminosity | Snow |
|---|---|---|---|---|---|---|---|
| 1787643122 | 15.56° C | 71% | 1012.3 hPa | 0 mm | - | 171 W/m² | - |
| 1787642522 | 14.44° C | 78% | 1012.2 hPa | 0 mm | - | 163 W/m² | - |
| 1787641922 | 13.89° C | 82% | 1012.3 hPa | 0 mm | - | 155 W/m² | - |
| 1787641322 | 13.33° C | 83% | 1012.1 hPa | 0 mm | - | 146 W/m² | - |
| 1787640722 | 12.78° C | 86% | 1012.1 hPa | 0 mm | - | 130 W/m² | - |
| 1787640122 | 12.78° C | 86% | 1011.9 hPa | 0 mm | - | 114 W/m² | - |
| 1787639522 | 12.22° C | 87% | 1012.1 hPa | 0 mm | - | 107 W/m² | - |
| 1787638922 | 11.67° C | 89% | 1012 hPa | 0 mm | - | 100 W/m² | - |
| 1787638322 | 11.11° C | 89% | 1011.7 hPa | 0 mm | - | 88 W/m² | - |
| 1787637722 | 11.11° C | 89% | 1011.9 hPa | 0 mm | - | 79 W/m² | - |
| 1787637122 | 11.11° C | 90% | 1011.8 hPa | 0 mm | - | 70 W/m² | - |
| 1787636522 | 10.56° C | 91% | 1011.8 hPa | 0 mm | - | 63 W/m² | - |
| 1787635922 | 10° C | 91% | 1011.6 hPa | 0 mm | - | 53 W/m² | - |
| 1787635322 | 10° C | 91% | 1011.6 hPa | 0 mm | - | 40 W/m² | - |
| 1787634722 | 9.44° C | 90% | 1011.6 hPa | 0 mm | - | 32 W/m² | - |
| 1787634122 | 9.44° C | 91% | 1011.8 hPa | 0 mm | - | 25 W/m² | - |
| 1787633522 | 9.44° C | 90% | 1011.6 hPa | 0 mm | - | 19 W/m² | - |
| 1787632922 | 9.44° C | 90% | 1012 hPa | 0 mm | - | 12 W/m² | - |
| 1787632321 | 9.44° C | 90% | 1012.1 hPa | 0 mm | - | 9 W/m² | - |
| 1787631722 | 9.44° C | 90% | 1012.1 hPa | 0 mm | - | 5 W/m² | - |
| 1787631122 | 9.44° C | 90% | 1012 hPa | 0 mm | - | 0 W/m² | - |
| 1787630521 | 9.44° C | 90% | 1012 hPa | 0 mm | - | 0 W/m² | - |
| 1787629922 | 9.44° C | 90% | 1012 hPa | 0 mm | - | 0 W/m² | - |
| 1787628121 | 9.44° C | 89% | 1012.5 hPa | 0 mm | - | 0 W/m² | - |
| 1787627521 | 10° C | 89% | 1012.7 hPa | 0 mm | - | 0 W/m² | - |
* Rain latest hour (hover to see other rain measurements)
** Current wind speed in m/s (hover to see current wind gust speed)